Time;durP1;ratioP1;P1;durP2;ratioP2;P2;SDS_P1;SDS_P2;PMS_P1;PMS_P2;Temp;Humidity;BMP_temperature;BMP_pressure;BME280_temperature;BME280_humidity;BME280_pressure;Samples;Min_cycle;Max_cycle;Signal;HPM_P1;HPM_P2
2023/05/04 00:02:01;;;;;;;;;;;;;;;20.62;45.31;102152.97;5009369;28;4351;-76
2023/05/04 00:04:27;;;;;;;;;;;;;;;20.61;45.55;102151.47;5009788;28;4581;-76
2023/05/04 00:06:53;;;;;;;;;;;;;;;20.61;45.43;102148.59;5012036;28;4201;-76
2023/05/04 00:09:20;;;;;;;;;;;;;;;20.60;45.36;102152.84;5012040;28;3998;-76
2023/05/04 00:11:46;;;;;;;;;;;;;;;20.59;45.41;102145.56;5011753;28;4166;-76
2023/05/04 00:14:13;;;;;;;;;;;;;;;20.60;45.41;102144.22;5003613;28;4099;-76
2023/05/04 00:16:39;;;;;;;;;;;;;;;20.61;45.33;102155.09;5018482;28;3966;-76
2023/05/04 00:19:06;;;;;;;;;;;;;;;20.61;45.42;102149.34;5010219;28;4010;-76
2023/05/04 00:21:32;;;;;;;;;;;;;;;20.62;45.48;102150.09;5008958;28;4208;-76
2023/05/04 00:23:58;;;;;;;;;;;;;;;20.63;45.56;102140.84;5009850;28;4182;-77
2023/05/04 00:26:25;;;;;;;;;;;;;;;20.65;45.54;102145.97;5007548;28;4032;-76
2023/05/04 00:28:51;;;;;;;;;;;;;;;20.66;45.54;102144.59;5012361;28;4229;-75
2023/05/04 00:31:18;;;;;;;;;;;;;;;20.66;45.46;102144.59;5011046;28;4139;-75
2023/05/04 00:33:44;;;;;;;;;;;;;;;20.67;45.34;102140.34;5012005;28;4095;-75
2023/05/04 00:36:12;;;;;;;;;;;;;;;20.66;45.56;102147.47;5012545;28;4486;-75
2023/05/04 00:38:48;;;;;;;;;;;;;;;20.65;45.55;102148.84;5013898;28;4156;-76
2023/05/04 00:41:16;;;;;;;;;;;;;;;20.66;45.50;102144.59;5010822;28;4136;-75
2023/05/04 00:43:42;;;;;;;;;;;;;;;20.66;45.33;102138.84;5009014;28;4203;-75
2023/05/04 00:46:09;;;;;;;;;;;;;;;20.66;45.35;102133.09;4996264;28;4240;-75
2023/05/04 00:48:35;;;;;;;;;;;;;;;20.65;45.41;102137.34;5006425;28;4060;-75
2023/05/04 00:51:02;;;;;;;;;;;;;;;20.64;45.50;102133.72;5005516;28;4027;-75
2023/05/04 00:53:28;;;;;;;;;;;;;;;20.63;45.67;102132.19;4998065;28;4117;-75
2023/05/04 00:55:55;;;;;;;;;;;;;;;20.64;45.48;102138.72;5011371;28;4231;-75
2023/05/04 00:58:21;;;;;;;;;;;;;;;20.64;45.57;102130.09;5028471;28;4298;-75
2023/05/04 01:00:47;;;;;;;;;;;;;;;20.62;45.58;102127.09;5008793;28;4154;-76
2023/05/04 01:03:14;;;;;;;;;;;;;;;20.62;45.44;102127.09;5026852;28;4155;-75
2023/05/04 01:05:42;;;;;;;;;;;;;;;20.61;45.72;102129.19;5011476;28;4167;-75
2023/05/04 01:08:16;;;;;;;;;;;;;;;20.60;45.45;102124.81;5011459;28;4079;-75
2023/05/04 01:10:46;;;;;;;;;;;;;;;20.60;45.60;102126.94;5007046;28;4059;-75
2023/05/04 01:13:13;;;;;;;;;;;;;;;20.60;45.53;102124.81;5007693;28;5038;-75
2023/05/04 01:15:40;;;;;;;;;;;;;;;20.59;45.73;102122.53;5016658;28;4215;-75
2023/05/04 01:18:06;;;;;;;;;;;;;;;20.58;45.55;102124.69;5010822;28;4052;-75
2023/05/04 01:20:33;;;;;;;;;;;;;;;20.58;45.76;102116.03;5009831;28;4082;-74
2023/05/04 01:23:00;;;;;;;;;;;;;;;20.57;45.41;102117.44;5007783;28;4176;-75
2023/05/04 01:25:32;;;;;;;;;;;;;;;20.56;45.58;102121.66;5012811;28;4165;-76
2023/05/04 01:28:01;;;;;;;;;;;;;;;20.57;45.53;102122.41;5004562;28;4054;-76
2023/05/04 01:30:28;;;;;;;;;;;;;;;20.57;45.55;102125.28;5005834;28;4200;-76
2023/05/04 01:32:56;;;;;;;;;;;;;;;20.54;45.46;102118.63;5007574;28;4166;-75
2023/05/04 01:35:22;;;;;;;;;;;;;;;20.56;45.75;102118.00;5003206;28;4174;-75
2023/05/04 01:37:49;;;;;;;;;;;;;;;20.54;45.54;102115.75;5003776;28;4111;-75
2023/05/04 01:40:16;;;;;;;;;;;;;;;20.55;45.49;102117.25;5001297;28;4403;-76
2023/05/04 01:42:43;;;;;;;;;;;;;;;20.55;45.60;102110.72;5006376;28;3974;-76
2023/05/04 01:45:10;;;;;;;;;;;;;;;20.52;45.49;102109.84;5013994;28;4149;-75
2023/05/04 01:47:36;;;;;;;;;;;;;;;20.52;45.68;102106.97;5010805;28;4328;-75
2023/05/04 01:50:04;;;;;;;;;;;;;;;20.52;45.46;102109.84;5009809;28;4315;-76
2023/05/04 01:52:31;;;;;;;;;;;;;;;20.51;45.66;102111.97;5011960;28;4191;-76
2023/05/04 01:54:57;;;;;;;;;;;;;;;20.51;45.68;102111.25;5009978;28;4310;-76
2023/05/04 01:57:24;;;;;;;;;;;;;;;20.50;45.64;102113.38;5006868;28;4379;-76
2023/05/04 01:59:51;;;;;;;;;;;;;;;20.50;45.71;102113.38;5025609;28;4427;-76
2023/05/04 02:02:17;;;;;;;;;;;;;;;20.49;45.70;102103.22;5014060;28;4176;-76
2023/05/04 02:04:44;;;;;;;;;;;;;;;20.48;45.75;102110.34;5009792;28;4335;-76
2023/05/04 02:07:12;;;;;;;;;;;;;;;20.49;45.56;102108.22;5009325;28;4374;-75
2023/05/04 02:09:41;;;;;;;;;;;;;;;20.48;45.53;102104.59;5011409;28;4117;-76
2023/05/04 02:12:08;;;;;;;;;;;;;;;20.49;45.61;102097.47;4988698;28;4017;-75
2023/05/04 02:14:34;;;;;;;;;;;;;;;20.50;45.47;102110.50;5014523;28;3952;-75
2023/05/04 02:17:02;;;;;;;;;;;;;;;20.49;45.35;102108.22;5012124;28;4193;-75
2023/05/04 02:19:28;;;;;;;;;;;;;;;20.48;45.48;102110.34;5007520;28;4188;-75
2023/05/04 02:21:55;;;;;;;;;;;;;;;20.48;45.45;102104.59;5005008;28;4293;-75
2023/05/04 02:24:21;;;;;;;;;;;;;;;20.48;45.55;102107.47;5015644;28;4146;-75
2023/05/04 02:26:48;;;;;;;;;;;;;;;20.47;45.45;102110.97;5011468;28;4145;-75
2023/05/04 02:29:14;;;;;;;;;;;;;;;20.47;45.32;102114.59;5008755;28;4195;-75
2023/05/04 02:31:41;;;;;;;;;;;;;;;20.44;45.60;102106.47;5016122;28;4129;-75
2023/05/04 02:34:07;;;;;;;;;;;;;;;20.43;45.52;102111.47;5012436;28;3969;-75
2023/05/04 02:36:39;;;;;;;;;;;;;;;20.44;45.49;102112.22;5009393;28;4158;-76
2023/05/04 02:39:06;;;;;;;;;;;;;;;20.44;45.45;102112.97;5043173;28;4128;-75
2023/05/04 02:41:33;;;;;;;;;;;;;;;20.42;45.70;102104.19;5013256;28;5476;-76
2023/05/04 02:43:59;;;;;;;;;;;;;;;20.42;45.58;102104.19;5013274;28;4173;-75
2023/05/04 02:46:25;;;;;;;;;;;;;;;20.42;45.72;102104.19;5012992;28;4181;-76
2023/05/04 02:48:52;;;;;;;;;;;;;;;20.42;45.65;102109.94;5006486;28;4767;-76
2023/05/04 02:51:18;;;;;;;;;;;;;;;20.44;45.35;102107.22;5013829;28;4159;-75
2023/05/04 02:53:44;;;;;;;;;;;;;;;20.46;45.55;102107.34;5014394;28;4115;-76
2023/05/04 02:56:11;;;;;;;;;;;;;;;20.46;45.63;102098.72;5023457;28;4216;-75
2023/05/04 02:58:37;;;;;;;;;;;;;;;20.48;45.38;102101.72;5010482;28;5010;-76
2023/05/04 03:01:04;;;;;;;;;;;;;;;20.50;45.54;102101.84;5013260;28;4354;-76
2023/05/04 03:03:30;;;;;;;;;;;;;;;20.51;45.48;102100.47;5008974;28;4498;-76
2023/05/04 03:05:57;;;;;;;;;;;;;;;20.53;45.40;102102.00;5012048;28;4038;-75
2023/05/04 03:08:23;;;;;;;;;;;;;;;20.51;45.49;102094.72;5010351;28;4282;-76
2023/05/04 03:10:50;;;;;;;;;;;;;;;20.54;45.52;102095.59;5009680;28;4557;-76
2023/05/04 03:13:16;;;;;;;;;;;;;;;20.54;45.45;102089.84;5014593;28;4198;-76
2023/05/04 03:15:43;;;;;;;;;;;;;;;20.54;45.51;102092.72;5012644;28;4285;-76
2023/05/04 03:18:09;;;;;;;;;;;;;;;20.54;45.62;102086.22;5009309;28;4172;-74
2023/05/04 03:20:36;;;;;;;;;;;;;;;20.55;45.51;102090.59;5013987;28;4161;-76
2023/05/04 03:23:03;;;;;;;;;;;;;;;20.55;45.24;102096.34;5017712;28;4247;-76
2023/05/04 03:25:29;;;;;;;;;;;;;;;20.56;45.42;102089.22;5017400;28;4124;-75
2023/05/04 03:27:56;;;;;;;;;;;;;;;20.57;45.33;102091.53;5016085;28;4016;-75
2023/05/04 03:30:22;;;;;;;;;;;;;;;20.57;45.28;102091.53;5009557;28;5013;-75
2023/05/04 03:32:49;;;;;;;;;;;;;;;20.58;45.53;102089.41;5009558;28;4148;-75
2023/05/04 03:35:15;;;;;;;;;;;;;;;20.58;45.25;102086.53;5007729;28;4029;-75
2023/05/04 03:37:50;;;;;;;;;;;;;;;20.60;45.48;102098.16;5010050;28;4463;-75
2023/05/04 03:40:21;;;;;;;;;;;;;;;20.59;45.35;102094.53;5013542;28;4192;-75
2023/05/04 03:42:48;;;;;;;;;;;;;;;20.58;45.29;102090.16;5023140;28;4202;-76
2023/05/04 03:45:15;;;;;;;;;;;;;;;20.58;45.52;102090.16;5017414;28;4633;-76
2023/05/04 03:47:41;;;;;;;;;;;;;;;20.57;45.32;102085.78;5011794;28;3999;-76
2023/05/04 03:50:08;;;;;;;;;;;;;;;20.59;45.28;102088.00;5012618;28;4152;-75
2023/05/04 03:52:34;;;;;;;;;;;;;;;20.59;45.27;102085.13;5009373;28;4097;-76
2023/05/04 03:55:01;;;;;;;;;;;;;;;20.61;45.29;102091.03;5009298;28;4069;-76
2023/05/04 03:57:28;;;;;;;;;;;;;;;20.62;45.43;102087.53;5013907;28;4095;-75
2023/05/04 03:59:55;;;;;;;;;;;;;;;20.62;45.24;102083.91;5011612;28;4146;-75
2023/05/04 04:02:24;;;;;;;;;;;;;;;20.62;45.29;102081.78;5030163;28;4802;-76
2023/05/04 04:04:50;;;;;;;;;;;;;;;20.62;45.43;102081.03;5014335;28;4254;-75
2023/05/04 04:07:17;;;;;;;;;;;;;;;20.61;45.45;102085.25;4994271;28;4576;-75
2023/05/04 04:09:43;;;;;;;;;;;;;;;20.61;45.48;102085.25;5010199;28;4229;-75
2023/05/04 04:12:10;;;;;;;;;;;;;;;20.62;45.29;102086.78;5007103;28;4481;-75
2023/05/04 04:14:36;;;;;;;;;;;;;;;20.62;45.41;102081.03;5013689;28;4041;-76
2023/05/04 04:17:02;;;;;;;;;;;;;;;20.61;45.31;102088.16;5011140;28;4198;-75
2023/05/04 04:19:29;;;;;;;;;;;;;;;20.62;45.25;102075.28;5013091;28;4068;-75
2023/05/04 04:21:58;;;;;;;;;;;;;;;20.62;45.50;102081.78;5015524;28;4354;-74
2023/05/04 04:24:25;;;;;;;;;;;;;;;20.63;45.40;102082.53;5011096;28;3997;-75
2023/05/04 04:26:51;;;;;;;;;;;;;;;20.64;45.44;102078.28;5012497;28;4192;-75
2023/05/04 04:29:17;;;;;;;;;;;;;;;20.67;45.33;102077.03;5010041;28;4290;-76
2023/05/04 04:31:44;;;;;;;;;;;;;;;20.66;45.21;102089.91;5008797;28;4345;-75
2023/05/04 04:34:10;;;;;;;;;;;;;;;20.65;45.45;102085.53;5000590;28;5042;-75
2023/05/04 04:36:37;;;;;;;;;;;;;;;20.66;45.51;102084.16;5015169;28;4246;-76
2023/05/04 04:39:04;;;;;;;;;;;;;;;20.66;45.47;102095.66;5015199;28;3995;-75
2023/05/04 04:41:31;;;;;;;;;;;;;;;20.65;45.37;102085.53;5012160;28;4031;-75
2023/05/04 04:43:57;;;;;;;;;;;;;;;20.67;45.41;102079.91;5013344;28;4273;-75
2023/05/04 04:46:23;;;;;;;;;;;;;;;20.65;45.36;102085.53;5014814;28;3988;-74
2023/05/04 04:48:52;;;;;;;;;;;;;;;20.65;45.49;102091.28;5009501;28;4285;-74
2023/05/04 04:51:18;;;;;;;;;;;;;;;20.65;45.71;102092.03;5002275;28;4198;-75
2023/05/04 04:53:44;;;;;;;;;;;;;;;20.65;45.48;102086.28;5023573;28;4163;-76
2023/05/04 04:56:11;;;;;;;;;;;;;;;20.67;45.44;102094.31;5006227;28;4156;-75
2023/05/04 04:58:37;;;;;;;;;;;;;;;20.67;45.64;102085.66;5005738;28;4039;-75
2023/05/04 05:01:04;;;;;;;;;;;;;;;20.66;45.59;102089.91;5010133;28;4044;-75
2023/05/04 05:03:30;;;;;;;;;;;;;;;20.67;45.52;102082.78;5002312;28;4153;-75
2023/05/04 05:06:00;;;;;;;;;;;;;;;20.67;45.67;102085.66;5002803;28;4043;-75
2023/05/04 05:08:26;;;;;;;;;;;;;;;20.65;45.49;102086.28;5008707;28;3942;-70
2023/05/04 05:10:53;;;;;;;;;;;;;;;20.59;45.71;102088.78;5009590;28;4336;-73
2023/05/04 05:13:19;;;;;;;;;;;;;;;20.64;45.89;102084.78;5007626;28;4055;-75
2023/05/04 05:15:45;;;;;;;;;;;;;;;20.71;46.31;102088.81;5008810;28;4211;-75
2023/05/04 05:18:12;;;;;;;;;;;;;;;20.77;46.74;102089.19;4992807;28;4194;-76
2023/05/04 05:20:38;;;;;;;;;;;;;;;20.86;46.74;102079.69;5009621;28;4195;-81
2023/05/04 05:23:05;;;;;;;;;;;;;;;20.88;47.00;102085.59;4999725;28;4455;-77
2023/05/04 05:25:32;;;;;;;;;;;;;;;21.09;47.74;102090.50;5011154;28;4028;-70
2023/05/04 05:27:59;;;;;;;;;;;;;;;21.19;47.46;102075.22;5009356;28;4197;-67
2023/05/04 05:30:27;;;;;;;;;;;;;;;21.20;46.66;102068.84;5008957;28;4090;-70
2023/05/04 05:32:53;;;;;;;;;;;;;;;21.06;46.79;102076.59;4996555;28;4095;-71
2023/05/04 05:35:20;;;;;;;;;;;;;;;20.99;46.84;102077.59;5011098;28;4128;-71
2023/05/04 05:37:47;;;;;;;;;;;;;;;20.96;46.97;102084.59;5004169;28;4171;-70
2023/05/04 05:40:14;;;;;;;;;;;;;;;20.92;46.83;102080.09;4998772;28;4273;-71
2023/05/04 05:42:43;;;;;;;;;;;;;;;20.95;46.89;102071.59;4986056;28;4026;-70
2023/05/04 05:45:10;;;;;;;;;;;;;;;20.93;47.00;102080.84;5013598;28;4366;-69
2023/05/04 05:47:36;;;;;;;;;;;;;;;20.93;47.06;102070.06;4983928;28;4139;-70
2023/05/04 05:50:03;;;;;;;;;;;;;;;20.95;46.91;102072.31;5002544;28;4240;-70
2023/05/04 05:52:30;;;;;;;;;;;;;;;20.96;46.65;102073.06;5013270;28;3976;-70
2023/05/04 05:54:56;;;;;;;;;;;;;;;20.95;46.31;102078.09;4995309;28;4285;-70
2023/05/04 05:57:24;;;;;;;;;;;;;;;20.93;45.71;102078.69;4993943;28;4257;-74
2023/05/04 05:59:50;;;;;;;;;;;;;;;21.36;47.20;102074.13;5015882;28;3953;-73
2023/05/04 06:02:16;;;;;;;;;;;;;;;21.58;45.87;102066.09;5013337;28;4368;-75
2023/05/04 06:04:46;;;;;;;;;;;;;;;21.46;44.50;102072.66;5019347;28;4026;-73
2023/05/04 06:07:12;;;;;;;;;;;;;;;21.54;44.44;102060.84;5016742;28;4119;-73
2023/05/04 06:09:39;;;;;;;;;;;;;;;21.56;43.95;102057.34;5015670;28;3964;-73
2023/05/04 06:12:11;;;;;;;;;;;;;;;21.58;42.87;102058.22;5015923;28;4043;-71
2023/05/04 06:14:37;;;;;;;;;;;;;;;21.60;42.77;102058.34;5007431;28;5355;-74
2023/05/04 06:17:04;;;;;;;;;;;;;;;21.45;41.99;102064.63;5020159;28;4115;-78
2023/05/04 06:19:35;;;;;;;;;;;;;;;21.59;42.32;102068.34;5001018;28;5280;-73
2023/05/04 06:22:01;;;;;;;;;;;;;;;21.63;42.21;102062.09;4997590;28;4077;-73
2023/05/04 06:24:28;;;;;;;;;;;;;;;21.64;41.43;102075.88;5020062;28;4068;-72
2023/05/04 06:26:55;;;;;;;;;;;;;;;21.69;41.48;102077.63;5000939;28;4219;-69
2023/05/04 06:29:21;;;;;;;;;;;;;;;21.64;41.89;102081.63;4995690;28;3991;-73
2023/05/04 06:31:48;;;;;;;;;;;;;;;21.69;41.93;102086.28;4988371;28;3928;-68
2023/05/04 06:34:15;;;;;;;;;;;;;;;21.52;41.36;102080.91;4990647;28;4669;-73
2023/05/04 06:36:42;;;;;;;;;;;;;;;21.66;41.75;102081.00;5011105;28;4063;-72
2023/05/04 06:39:09;;;;;;;;;;;;;;;21.69;41.99;102071.88;5007972;28;4309;-72
2023/05/04 06:41:36;;;;;;;;;;;;;;;21.34;42.94;102068.97;4999953;28;3983;-76
2023/05/04 06:44:03;;;;;;;;;;;;;;;21.29;43.40;102076.63;5012994;28;5028;-76
2023/05/04 06:46:29;;;;;;;;;;;;;;;21.28;43.41;102069.38;5005704;28;4457;-75
2023/05/04 06:48:57;;;;;;;;;;;;;;;21.27;43.23;102082.25;5011739;28;4418;-74
2023/05/04 06:51:23;;;;;;;;;;;;;;;21.28;43.09;102074.34;5009578;28;4060;-75
2023/05/04 06:53:49;;;;;;;;;;;;;;;21.27;43.48;102073.59;5018056;28;4196;-72
2023/05/04 06:56:16;;;;;;;;;;;;;;;21.26;43.44;102075.00;5010367;28;4186;-75
2023/05/04 06:58:42;;;;;;;;;;;;;;;21.26;43.50;102071.38;5015916;28;3981;-75
2023/05/04 07:01:08;;;;;;;;;;;;;;;21.26;43.79;102071.38;5025010;28;4094;-75
2023/05/04 07:03:35;;;;;;;;;;;;;;;21.25;43.68;102066.97;5018241;28;4054;-75
2023/05/04 07:06:02;;;;;;;;;;;;;;;21.24;43.62;102068.38;5010251;28;3999;-75
2023/05/04 07:08:29;;;;;;;;;;;;;;;21.25;43.75;102079.25;5011813;28;3999;-75
2023/05/04 07:10:55;;;;;;;;;;;;;;;21.24;43.66;102086.38;5013006;28;4093;-75
2023/05/04 07:13:22;;;;;;;;;;;;;;;21.24;43.97;102080.63;5017667;28;4110;-75
2023/05/04 07:15:48;;;;;;;;;;;;;;;21.23;44.04;102076.22;5005364;28;5034;-75
2023/05/04 07:18:15;;;;;;;;;;;;;;;21.23;44.02;102078.38;5012240;28;4083;-75
2023/05/04 07:20:41;;;;;;;;;;;;;;;21.22;43.82;102071.84;5010741;28;4024;-76
2023/05/04 07:23:07;;;;;;;;;;;;;;;21.23;44.14;102073.34;5005695;28;4151;-75
2023/05/04 07:25:34;;;;;;;;;;;;;;;21.21;43.78;102070.38;5010682;28;4161;-75
2023/05/04 07:28:00;;;;;;;;;;;;;;;21.19;43.94;102055.84;5015431;28;3987;-75
2023/05/04 07:30:27;;;;;;;;;;;;;;;21.19;44.29;102055.84;5009400;28;4256;-75
2023/05/04 07:32:53;;;;;;;;;;;;;;;21.19;44.04;102055.84;5011618;28;5313;-75
2023/05/04 07:35:19;;;;;;;;;;;;;;;21.19;44.35;102055.84;5008871;28;5319;-75
2023/05/04 07:37:46;;;;;;;;;;;;;;;21.19;44.19;102055.84;5017038;28;4013;-75
2023/05/04 07:40:13;;;;;;;;;;;;;;;21.18;44.44;102051.44;5013067;28;4814;-75
2023/05/04 07:42:40;;;;;;;;;;;;;;;21.20;44.45;102051.56;5012395;28;4175;-76
2023/05/04 07:45:07;;;;;;;;;;;;;;;21.15;44.62;102049.06;5004227;28;4116;-72
2023/05/04 07:47:34;;;;;;;;;;;;;;;20.81;43.34;102052.03;4995066;28;4024;-73
2023/05/04 07:50:00;;;;;;;;;;;;;;;21.33;42.99;102041.56;5012753;28;4051;-73
2023/05/04 07:52:26;;;;;;;;;;;;;;;21.53;42.92;102042.03;4994824;28;4490;-72
2023/05/04 07:54:53;;;;;;;;;;;;;;;21.55;43.18;102050.81;5012454;28;4458;-76
2023/05/04 07:57:19;;;;;;;;;;;;;;;21.52;44.63;102040.56;5013368;28;4121;-77
2023/05/04 07:59:46;;;;;;;;;;;;;;;21.58;44.04;102038.03;5037609;28;3953;-75
2023/05/04 08:02:12;;;;;;;;;;;;;;;21.74;43.74;102038.28;5011442;28;4078;-75
2023/05/04 08:04:38;;;;;;;;;;;;;;;21.80;43.64;102040.75;5032489;28;4132;-76
2023/05/04 08:07:05;;;;;;;;;;;;;;;21.84;43.99;102035.22;5018845;28;4586;-71
2023/05/04 08:09:31;;;;;;;;;;;;;;;21.87;43.98;102039.72;5024662;28;4107;-74
2023/05/04 08:11:58;;;;;;;;;;;;;;;21.87;44.65;102034.69;5016272;28;4217;-75
2023/05/04 08:14:24;;;;;;;;;;;;;;;21.62;44.64;102038.28;5005391;28;4497;-79
2023/05/04 08:16:51;;;;;;;;;;;;;;;21.47;45.05;102036.69;5002357;28;4009;-75
2023/05/04 08:19:17;;;;;;;;;;;;;;;21.47;45.05;102033.03;4996364;28;4219;-75
2023/05/04 08:21:43;;;;;;;;;;;;;;;21.45;45.09;102038.69;5007806;28;4481;-75
2023/05/04 08:24:10;;;;;;;;;;;;;;;21.41;44.94;102029.78;5006125;28;4067;-75
2023/05/04 08:26:37;;;;;;;;;;;;;;;21.42;45.19;102034.19;5006385;28;4027;-76
2023/05/04 08:29:04;;;;;;;;;;;;;;;21.43;45.31;102033.53;5007447;28;3943;-75
2023/05/04 08:31:31;;;;;;;;;;;;;;;21.42;45.09;102032.06;5006227;28;4215;-75
2023/05/04 08:33:57;;;;;;;;;;;;;;;21.42;45.28;102040.69;5003042;28;4013;-75
2023/05/04 08:36:25;;;;;;;;;;;;;;;21.41;45.42;102039.19;5010413;28;4105;-76
2023/05/04 08:38:52;;;;;;;;;;;;;;;21.40;45.23;102034.03;5010384;28;4154;-76
2023/05/04 08:41:18;;;;;;;;;;;;;;;21.39;45.48;102032.50;5007156;28;4051;-75
2023/05/04 08:43:48;;;;;;;;;;;;;;;21.38;45.51;102025.25;5012558;28;5019;-76
2023/05/04 08:46:15;;;;;;;;;;;;;;;21.20;45.77;102017.00;5000693;28;4302;-71
2023/05/04 08:48:43;;;;;;;;;;;;;;;20.93;43.62;102018.22;5001963;28;4082;-71
2023/05/04 08:51:10;;;;;;;;;;;;;;;20.91;41.58;102012.38;5007945;28;4334;-71
2023/05/04 08:53:38;;;;;;;;;;;;;;;20.87;40.49;102006.34;5002330;28;4045;-72
2023/05/04 08:56:08;;;;;;;;;;;;;;;20.68;40.50;102010.22;5006807;28;4341;-74
2023/05/04 08:58:36;;;;;;;;;;;;;;;20.70;39.08;102013.19;4995842;28;4053;-73
2023/05/04 09:01:03;;;;;;;;;;;;;;;20.72;38.05;102012.59;5003469;28;4431;-77
2023/05/04 09:03:30;;;;;;;;;;;;;;;20.80;37.67;102010.22;4989201;28;4353;-77
2023/05/04 09:05:57;;;;;;;;;;;;;;;20.86;39.34;102001.97;5001847;28;4019;-78
2023/05/04 09:08:23;;;;;;;;;;;;;;;20.85;38.73;102011.97;5002332;28;4186;-72
2023/05/04 09:10:49;;;;;;;;;;;;;;;20.77;38.18;102017.22;4989863;28;4097;-72
2023/05/04 09:13:16;;;;;;;;;;;;;;;20.58;38.15;102015.31;5022253;28;4441;-88
2023/05/04 09:15:52;;;;;;;;;;;;;;;20.63;37.37;102007.69;4998958;28;4706;-81
2023/05/04 09:18:18;;;;;;;;;;;;;;;20.53;37.23;102004.16;5008325;28;4111;-81
2023/05/04 09:20:48;;;;;;;;;;;;;;;20.65;36.79;102010.69;5004030;28;3935;-82
2023/05/04 09:23:15;;;;;;;;;;;;;;;20.36;36.21;102003.09;5003919;28;4300;-84
2023/05/04 09:25:47;;;;;;;;;;;;;;;20.25;36.25;101998.06;5006718;28;4097;-83
2023/05/04 09:28:14;;;;;;;;;;;;;;;20.00;36.37;101993.59;5015527;28;5159;-75
2023/05/04 09:30:40;;;;;;;;;;;;;;;20.39;35.92;102001.88;4997553;28;4118;-81
2023/05/04 09:33:07;;;;;;;;;;;;;;;20.60;36.10;102003.19;5007068;28;4965;-81
2023/05/04 09:35:34;;;;;;;;;;;;;;;20.78;38.17;101989.22;5010674;28;4174;-82
2023/05/04 09:38:00;;;;;;;;;;;;;;;20.88;38.50;101990.56;5006400;28;4094;-82
2023/05/04 09:40:30;;;;;;;;;;;;;;;20.95;38.77;102002.47;5006212;28;4604;-75
2023/05/04 09:42:56;;;;;;;;;;;;;;;20.93;38.63;101995.19;5007240;28;4387;-81
2023/05/04 09:45:22;;;;;;;;;;;;;;;20.91;38.83;101989.34;5009047;28;4038;-81
2023/05/04 09:47:51;;;;;;;;;;;;;;;20.95;39.26;101985.94;5008949;28;3967;-81
2023/05/04 09:50:21;;;;;;;;;;;;;;;20.99;39.41;101991.22;4998868;28;4340;-79
2023/05/04 09:52:48;;;;;;;;;;;;;;;20.98;39.71;101970.31;5017615;28;4018;-78
2023/05/04 09:55:15;;;;;;;;;;;;;;;21.00;39.88;101969.66;5006499;28;4072;-77
2023/05/04 09:57:41;;;;;;;;;;;;;;;21.04;40.38;101969.91;5002847;28;3997;-77
2023/05/04 10:00:11;;;;;;;;;;;;;;;21.04;40.49;101967.03;4992754;28;4146;-77
2023/05/04 10:02:38;;;;;;;;;;;;;;;21.03;40.72;101959.78;5006840;28;4132;-77
2023/05/04 10:05:05;;;;;;;;;;;;;;;21.03;40.73;101960.53;5023527;28;5023;-69
2023/05/04 10:07:32;;;;;;;;;;;;;;;21.02;40.93;101955.41;5015385;28;4332;-77
2023/05/04 10:10:01;;;;;;;;;;;;;;;21.01;40.74;101956.78;5007325;28;3973;-77
2023/05/04 10:12:27;;;;;;;;;;;;;;;21.00;40.98;101952.38;4999308;28;4011;-77
2023/05/04 10:14:53;;;;;;;;;;;;;;;21.01;41.24;101953.91;5003138;28;4060;-78
2023/05/04 10:17:26;;;;;;;;;;;;;;;21.00;41.46;101946.63;5014821;28;4210;-78
2023/05/04 10:19:55;;;;;;;;;;;;;;;21.02;41.36;101946.75;5005865;28;4046;-78
2023/05/04 10:22:27;;;;;;;;;;;;;;;21.01;41.56;101940.25;5006759;28;4301;-77
2023/05/04 10:24:58;;;;;;;;;;;;;;;21.01;41.71;101942.38;5015094;28;4334;-78
2023/05/04 10:27:43;;;;;;;;;;;;;;;21.01;41.75;101942.38;4999034;28;4345;-78
2023/05/04 10:30:10;;;;;;;;;;;;;;;21.03;41.60;101936.75;5006136;28;4190;-76
2023/05/04 10:32:38;;;;;;;;;;;;;;;21.03;41.76;101940.38;5011012;28;4294;-78
2023/05/04 10:35:05;;;;;;;;;;;;;;;21.03;41.77;101928.13;5013328;28;4893;-74
2023/05/04 10:37:32;;;;;;;;;;;;;;;21.01;41.92;101925.84;5006779;28;3955;-77
2023/05/04 10:39:58;;;;;;;;;;;;;;;21.02;41.74;101920.84;5015328;28;4009;-77
2023/05/04 10:42:25;;;;;;;;;;;;;;;21.03;41.71;101916.59;5009013;28;4803;-77
2023/05/04 10:44:52;;;;;;;;;;;;;;;21.05;41.71;101908.06;5017102;28;3992;-77
2023/05/04 10:47:31;;;;;;;;;;;;;;;21.04;41.91;101906.56;5014147;28;4148;-77
2023/05/04 10:50:07;;;;;;;;;;;;;;;21.01;41.78;101899.94;5014135;28;4105;-79
2023/05/04 10:52:47;;;;;;;;;;;;;;;20.98;41.66;101900.44;5003212;28;3904;-79
2023/05/04 10:55:13;;;;;;;;;;;;;;;21.01;41.72;101899.19;4994739;28;4169;-73
2023/05/04 10:57:49;;;;;;;;;;;;;;;21.05;41.52;101890.78;5017942;28;4257;-73
2023/05/04 11:00:16;;;;;;;;;;;;;;;20.99;40.04;101879.66;5012375;28;3972;-74
2023/05/04 11:02:43;;;;;;;;;;;;;;;20.86;36.72;101881.03;5010749;28;4244;-73
2023/05/04 11:05:16;;;;;;;;;;;;;;;20.84;38.16;101877.28;5001285;28;4145;-75
2023/05/04 11:07:42;;;;;;;;;;;;;;;20.88;37.61;101889.81;5011036;28;4068;-75
2023/05/04 11:10:19;;;;;;;;;;;;;;;20.96;40.59;101885.91;5011075;28;4088;-74
2023/05/04 11:12:45;;;;;;;;;;;;;;;20.99;40.58;101873.16;5010749;28;4070;-74
2023/05/04 11:15:12;;;;;;;;;;;;;;;21.03;40.64;101876.28;5006630;28;4185;-74
2023/05/04 11:17:48;;;;;;;;;;;;;;;21.01;40.48;101868.25;5008460;28;4027;-75
2023/05/04 11:20:26;;;;;;;;;;;;;;;21.06;40.43;101875.00;5012567;28;4436;-74
2023/05/04 11:22:53;;;;;;;;;;;;;;;21.02;40.27;101874.75;5009449;28;5175;-74
2023/05/04 11:25:25;;;;;;;;;;;;;;;21.05;40.41;101871.38;5005096;28;4041;-71
2023/05/04 11:27:52;;;;;;;;;;;;;;;21.01;39.51;101856.00;5008124;28;4329;-73
2023/05/04 11:30:18;;;;;;;;;;;;;;;20.88;38.82;101855.25;5007912;28;3956;-71
2023/05/04 11:32:52;;;;;;;;;;;;;;;20.84;37.26;101849.25;5013811;28;4202;-70
2023/05/04 11:35:21;;;;;;;;;;;;;;;20.84;35.46;101862.91;5007907;28;4131;-78
2023/05/04 11:37:49;;;;;;;;;;;;;;;20.90;37.00;101858.25;5008804;28;4071;-78
2023/05/04 11:40:17;;;;;;;;;;;;;;;20.95;39.73;101858.50;5012318;28;4250;-79
2023/05/04 11:42:43;;;;;;;;;;;;;;;20.98;39.59;101851.47;5014504;28;4258;-75
2023/05/04 11:45:14;;;;;;;;;;;;;;;21.00;39.58;101842.97;5008879;28;4277;-74
2023/05/04 11:47:40;;;;;;;;;;;;;;;20.89;38.34;101848.13;5011118;28;4236;-80
2023/05/04 11:50:08;;;;;;;;;;;;;;;20.91;38.06;101848.25;5006737;28;4191;-77
2023/05/04 11:52:35;;;;;;;;;;;;;;;20.97;38.79;101835.59;5006800;28;4350;-81
2023/05/04 11:55:02;;;;;;;;;;;;;;;21.25;39.20;101833.63;5000870;28;5048;-74
2023/05/04 11:57:30;;;;;;;;;;;;;;;21.18;38.17;101841.16;5013328;28;4196;-78
2023/05/04 11:59:56;;;;;;;;;;;;;;;21.11;37.14;101836.44;5007582;28;4265;-78
2023/05/04 12:02:24;;;;;;;;;;;;;;;21.26;40.31;101841.66;5015082;28;4094;-75
2023/05/04 12:04:51;;;;;;;;;;;;;;;21.61;39.67;101829.25;5013885;28;4157;-71
2023/05/04 12:07:17;;;;;;;;;;;;;;;21.87;39.25;101829.97;5004163;28;4571;-70
2023/05/04 12:09:44;;;;;;;;;;;;;;;22.04;38.40;101819.34;5006041;28;5152;-70
2023/05/04 12:12:11;;;;;;;;;;;;;;;22.09;38.93;101818.91;5008589;28;4144;-69
2023/05/04 12:14:53;;;;;;;;;;;;;;;22.18;39.21;101820.84;5012574;28;4006;-70
2023/05/04 12:17:19;;;;;;;;;;;;;;;22.27;38.53;101822.06;5011459;28;4315;-72
2023/05/04 12:19:49;;;;;;;;;;;;;;;22.21;38.29;101823.84;5010156;28;4448;-75
2023/05/04 12:22:15;;;;;;;;;;;;;;;21.89;37.59;101827.19;5006196;28;4647;-70
2023/05/04 12:24:42;;;;;;;;;;;;;;;22.00;36.92;101819.84;5009893;28;4203;-73
2023/05/04 12:27:12;;;;;;;;;;;;;;;22.03;36.49;101820.72;5010808;28;4344;-72
2023/05/04 12:29:38;;;;;;;;;;;;;;;22.06;35.22;101823.09;5011836;28;4334;-73
2023/05/04 12:32:05;;;;;;;;;;;;;;;21.62;35.27;101815.56;5002219;28;4558;-73
2023/05/04 12:34:31;;;;;;;;;;;;;;;21.52;36.87;101815.75;5012211;28;4136;-73
2023/05/04 12:36:58;;;;;;;;;;;;;;;21.43;37.19;101808.78;5004857;28;4082;-75
2023/05/04 12:39:25;;;;;;;;;;;;;;;21.29;35.67;101811.56;5007237;28;4143;-77
2023/05/04 12:41:52;;;;;;;;;;;;;;;20.56;33.94;101810.09;5006598;28;4037;-72
2023/05/04 12:44:18;;;;;;;;;;;;;;;20.60;34.02;101807.50;5005755;28;4148;-74
2023/05/04 12:46:45;;;;;;;;;;;;;;;20.66;33.79;101807.84;5002874;28;4187;-74
2023/05/04 12:49:13;;;;;;;;;;;;;;;20.92;33.21;101808.69;5006254;28;4041;-72